createdAt,value
2018-12-08T00:00:02.765Z,1
2018-12-08T00:05:02.698Z,1
2018-12-08T00:10:03.286Z,1
2018-12-08T00:15:02.806Z,1
2018-12-08T00:20:02.422Z,1
2018-12-08T00:25:02.914Z,1
2018-12-08T00:30:03.459Z,1
2018-12-08T00:35:02.907Z,1
2018-12-08T00:40:02.423Z,1
2018-12-08T00:45:02.858Z,1
2018-12-08T00:50:03.348Z,1
2018-12-08T00:55:02.764Z,1
2018-12-08T01:00:03.251Z,1
2018-12-08T01:05:02.755Z,1
2018-12-08T01:10:03.430Z,1
2018-12-08T01:15:02.895Z,1
2018-12-08T01:20:03.303Z,1
2018-12-08T01:25:02.977Z,1
2018-12-08T01:30:02.403Z,1
2018-12-08T01:35:03.026Z,1
2018-12-08T01:40:02.541Z,1
2018-12-08T01:45:03.290Z,1
2018-12-08T01:50:02.756Z,1
2018-12-08T01:55:03.129Z,1
2018-12-08T02:00:02.618Z,1
2018-12-08T02:05:02.976Z,1
2018-12-08T02:10:02.438Z,0
2018-12-08T02:15:02.753Z,1
2018-12-08T02:20:03.139Z,0
2018-12-08T02:25:02.565Z,1
2018-12-08T02:30:02.883Z,1
2018-12-08T02:35:02.404Z,1
2018-12-08T02:40:02.811Z,1
2018-12-08T02:45:03.194Z,1
2018-12-08T02:50:02.601Z,1
2018-12-08T02:55:02.951Z,1
2018-12-08T03:00:03.274Z,1
2018-12-08T03:05:02.617Z,1
2018-12-08T03:10:03.184Z,1
2018-12-08T03:15:02.633Z,1
2018-12-08T03:20:03.089Z,1
2018-12-08T03:25:02.519Z,0
2018-12-08T03:30:02.955Z,0
2018-12-08T03:35:02.423Z,1
2018-12-08T03:40:02.960Z,1
2018-12-08T03:45:02.482Z,1
2018-12-08T03:50:02.920Z,1
2018-12-08T03:55:03.435Z,1
2018-12-08T04:00:03.544Z,1
2018-12-08T04:05:03.092Z,1
2018-12-08T04:10:02.591Z,1
2018-12-08T04:15:03.470Z,1
2018-12-08T04:20:02.810Z,1
2018-12-08T04:25:03.198Z,1
2018-12-08T04:30:02.645Z,1
2018-12-08T04:35:03.204Z,1
2018-12-08T04:40:02.698Z,1
2018-12-08T04:45:03.195Z,1
2018-12-08T04:50:02.861Z,1
2018-12-08T04:55:03.409Z,1
2018-12-08T05:00:03.021Z,1
2018-12-08T05:05:02.739Z,1
2018-12-08T05:10:03.396Z,1
2018-12-08T05:15:02.807Z,1
2018-12-08T05:20:03.386Z,1
2018-12-08T05:25:02.810Z,1
2018-12-08T05:30:03.284Z,1
2018-12-08T05:35:02.638Z,1
2018-12-08T05:40:03.176Z,1
2018-12-08T05:45:02.705Z,1
2018-12-08T05:50:03.233Z,1
2018-12-08T05:55:02.667Z,1
2018-12-08T06:00:03.257Z,1
2018-12-08T06:05:02.707Z,1
2018-12-08T06:10:03.311Z,1
2018-12-08T06:15:02.688Z,1
2018-12-08T06:20:03.203Z,1
2018-12-08T06:25:02.680Z,1
2018-12-08T06:30:03.159Z,1
2018-12-08T06:35:02.629Z,1
2018-12-08T06:40:03.172Z,2
2018-12-08T06:45:02.672Z,2
2018-12-08T06:50:03.210Z,3
2018-12-08T06:55:02.581Z,4
2018-12-08T07:00:03.008Z,9
2018-12-08T07:05:02.523Z,13
2018-12-08T07:10:03.383Z,26
2018-12-08T07:15:02.767Z,41
2018-12-08T07:20:03.321Z,47
2018-12-08T07:25:02.845Z,50
2018-12-08T07:30:03.473Z,61
2018-12-08T07:35:03.105Z,59
2018-12-08T07:40:02.759Z,67
2018-12-08T07:45:03.391Z,68
2018-12-08T07:50:03.223Z,141
2018-12-08T07:55:02.757Z,483
2018-12-08T08:00:04.776Z,1000
2018-12-08T08:05:02.513Z,412
2018-12-08T08:10:03.133Z,69
2018-12-08T08:15:02.869Z,77
2018-12-08T08:20:03.777Z,89
2018-12-08T08:25:03.253Z,294
2018-12-08T08:30:02.785Z,539
2018-12-08T08:35:03.346Z,188
2018-12-08T08:40:02.852Z,757
2018-12-08T08:45:03.425Z,1000
2018-12-08T08:50:05.057Z,470
2018-12-08T08:55:02.740Z,670
2018-12-08T09:00:03.181Z,559
2018-12-08T09:05:02.746Z,516
2018-12-08T09:10:03.383Z,572
2018-12-08T09:15:02.896Z,521
2018-12-08T09:20:02.531Z,698
2018-12-08T09:25:03.094Z,800
2018-12-08T09:30:02.491Z,471
2018-12-08T09:35:03.089Z,744
2018-12-08T09:40:02.620Z,970
2018-12-08T09:45:03.129Z,1000
2018-12-08T09:50:02.627Z,1000
2018-12-08T09:55:03.134Z,1000
2018-12-08T10:00:02.581Z,1000
2018-12-08T10:05:03.260Z,1000
2018-12-08T10:10:02.753Z,3000
2018-12-08T10:15:03.277Z,3000
2018-12-08T10:20:02.794Z,1000
2018-12-08T10:25:03.526Z,2000
2018-12-08T10:30:02.987Z,1000
2018-12-08T10:35:02.508Z,2000
2018-12-08T10:40:03.006Z,1000
2018-12-08T10:45:02.653Z,1000
2018-12-08T10:50:03.493Z,1000
2018-12-08T10:55:02.885Z,2000
2018-12-08T11:00:02.471Z,3000
2018-12-08T11:05:03.096Z,3000
2018-12-08T11:10:02.616Z,3000
2018-12-08T11:15:03.091Z,1000
2018-12-08T11:20:02.707Z,2000
2018-12-08T11:25:03.218Z,1000
2018-12-08T11:30:02.631Z,1000
2018-12-08T11:35:03.122Z,2000
2018-12-08T11:40:02.628Z,2000
2018-12-08T11:45:03.406Z,2000
2018-12-08T11:50:02.827Z,2000
2018-12-08T11:55:03.422Z,1000
2018-12-08T12:00:02.834Z,1000
2018-12-08T12:05:03.339Z,1000
2018-12-08T12:10:02.900Z,1000
2018-12-08T12:15:02.458Z,1000
2018-12-08T12:20:03.194Z,1000
2018-12-08T12:25:02.616Z,2000
2018-12-08T12:30:03.009Z,1000
2018-12-08T12:35:02.525Z,1000
2018-12-08T12:40:03.039Z,984
2018-12-08T12:45:02.684Z,851
2018-12-08T12:50:03.295Z,849
2018-12-08T12:55:02.800Z,770
2018-12-08T13:00:03.349Z,959
2018-12-08T13:05:03.054Z,932
2018-12-08T13:10:02.603Z,1000
2018-12-08T13:15:03.134Z,793
2018-12-08T13:20:02.596Z,607
2018-12-08T13:25:03.078Z,614
2018-12-08T13:30:02.536Z,577
2018-12-08T13:35:03.037Z,830
2018-12-08T13:40:02.468Z,882
2018-12-08T13:45:02.926Z,1000
2018-12-08T13:50:03.582Z,1000
2018-12-08T13:55:02.964Z,1000
2018-12-08T14:00:02.412Z,987
2018-12-08T14:05:03.052Z,1000
2018-12-08T14:10:02.600Z,722
2018-12-08T14:15:03.084Z,582
2018-12-08T14:20:02.626Z,571
2018-12-08T14:25:03.134Z,512
2018-12-08T14:30:02.675Z,613
2018-12-08T14:35:03.189Z,331
2018-12-08T14:40:02.822Z,327
2018-12-08T14:45:03.435Z,285
2018-12-08T14:50:02.973Z,280
2018-12-08T14:55:02.591Z,265
2018-12-08T15:00:03.103Z,298
2018-12-08T15:05:02.756Z,265
2018-12-08T15:10:03.238Z,120
2018-12-08T15:15:02.613Z,65
2018-12-08T15:20:03.150Z,54
2018-12-08T15:25:02.643Z,48
2018-12-08T15:30:03.181Z,39
2018-12-08T15:35:02.542Z,34
2018-12-08T15:40:02.993Z,26
2018-12-08T15:45:02.578Z,23
2018-12-08T15:50:03.271Z,19
2018-12-08T15:55:02.714Z,11
2018-12-08T16:00:03.336Z,6
2018-12-08T16:05:02.799Z,2
2018-12-08T16:10:03.377Z,2
2018-12-08T16:15:03.343Z,1
2018-12-08T16:20:02.735Z,1
2018-12-08T16:25:03.191Z,1
2018-12-08T16:30:04.002Z,1
2018-12-08T16:35:02.516Z,1
2018-12-08T16:40:03.037Z,1
2018-12-08T16:45:02.532Z,1
2018-12-08T16:50:03.024Z,1
2018-12-08T16:55:02.515Z,1
2018-12-08T17:00:02.897Z,1
2018-12-08T17:05:02.455Z,1
2018-12-08T17:10:03.052Z,1
2018-12-08T17:15:02.477Z,1
2018-12-08T17:20:02.951Z,1
2018-12-08T17:25:02.416Z,1
2018-12-08T17:30:02.846Z,1
2018-12-08T17:35:02.392Z,1
2018-12-08T17:40:02.924Z,1
2018-12-08T17:45:02.400Z,1
2018-12-08T17:50:02.921Z,2
2018-12-08T17:55:03.369Z,1
2018-12-08T18:00:02.855Z,1
2018-12-08T18:05:02.690Z,1
2018-12-08T18:10:03.151Z,1
2018-12-08T18:15:02.624Z,1
2018-12-08T18:20:03.167Z,1
2018-12-08T18:25:02.600Z,1
2018-12-08T18:30:03.034Z,1
2018-12-08T18:35:02.621Z,1
2018-12-08T18:40:03.181Z,1
2018-12-08T18:45:02.681Z,1
2018-12-08T18:50:03.117Z,1
2018-12-08T18:55:02.589Z,1
2018-12-08T19:00:03.068Z,1
2018-12-08T19:05:02.687Z,1
2018-12-08T19:10:03.286Z,1
2018-12-08T19:15:02.767Z,1
2018-12-08T19:20:03.277Z,1
2018-12-08T19:25:02.770Z,1
2018-12-08T19:30:03.266Z,1
2018-12-08T19:35:02.825Z,1
2018-12-08T19:40:03.315Z,1
2018-12-08T19:45:02.778Z,1
2018-12-08T19:50:03.255Z,1
2018-12-08T19:55:02.699Z,1
2018-12-08T20:00:03.265Z,1
2018-12-08T20:05:02.843Z,1
2018-12-08T20:10:03.357Z,1
2018-12-08T20:15:02.870Z,1
2018-12-08T20:20:02.493Z,1
2018-12-08T20:25:03.092Z,1
2018-12-08T20:30:02.559Z,1
2018-12-08T20:35:03.084Z,1
2018-12-08T20:40:02.574Z,1
2018-12-08T20:45:03.060Z,1
2018-12-08T20:50:02.560Z,1
2018-12-08T20:55:03.096Z,1
2018-12-08T21:00:02.746Z,1
2018-12-08T21:05:03.287Z,1
2018-12-08T21:10:02.975Z,0
2018-12-08T21:15:02.411Z,1
2018-12-08T21:20:02.857Z,1
2018-12-08T21:25:03.387Z,1
2018-12-08T21:30:02.994Z,1
2018-12-08T21:35:02.482Z,1
2018-12-08T21:40:03.065Z,0
2018-12-08T21:45:02.541Z,1
2018-12-08T21:50:02.978Z,1
2018-12-08T21:55:02.545Z,1
2018-12-08T22:00:03.030Z,1
2018-12-08T22:05:02.541Z,1
2018-12-08T22:10:03.050Z,1
2018-12-08T22:15:02.439Z,1
2018-12-08T22:20:02.908Z,1
2018-12-08T22:25:02.414Z,1
2018-12-08T22:30:03.073Z,0
2018-12-08T22:35:02.521Z,0
2018-12-08T22:40:03.135Z,0
2018-12-08T22:45:02.542Z,0
2018-12-08T22:50:02.909Z,1
2018-12-08T22:55:02.412Z,1
2018-12-08T23:00:02.784Z,1
2018-12-08T23:05:02.468Z,1
2018-12-08T23:10:03.013Z,1
2018-12-08T23:15:02.695Z,1
2018-12-08T23:20:03.211Z,1
2018-12-08T23:25:02.701Z,1
2018-12-08T23:30:03.178Z,1
2018-12-08T23:35:02.559Z,0
2018-12-08T23:40:03.166Z,1
2018-12-08T23:45:02.820Z,1
2018-12-08T23:50:03.269Z,1
2018-12-08T23:55:02.644Z,1
